METAR Data
IDs: Format: Raw Decoded Include TAF

Data at: 0200 UTC 01 Mar 2021

LESO 010000Z AUTO VRB01KT CAVOK 08/07 Q1021